sensor_id;sensor_type;location;lat;lon;timestamp;temperature;humidity
2435;DHT22;1228;51.022;6.764;2024-03-17T00:01:36;5.70;99.90
2435;DHT22;1228;51.022;6.764;2024-03-17T00:04:01;5.70;99.90
2435;DHT22;1228;51.022;6.764;2024-03-17T00:06:28;5.60;99.90
2435;DHT22;1228;51.022;6.764;2024-03-17T00:08:53;5.50;99.90
2435;DHT22;1228;51.022;6.764;2024-03-17T00:11:20;5.60;99.90
2435;DHT22;1228;51.022;6.764;2024-03-17T00:13:46;5.50;99.90
2435;DHT22;1228;51.022;6.764;2024-03-17T00:16:11;5.60;99.90
2435;DHT22;1228;51.022;6.764;2024-03-17T00:18:39;5.60;99.90
2435;DHT22;1228;51.022;6.764;2024-03-17T00:21:04;5.60;99.90
2435;DHT22;1228;51.022;6.764;2024-03-17T00:23:30;5.60;99.90
2435;DHT22;1228;51.022;6.764;2024-03-17T00:25:56;5.60;99.90
2435;DHT22;1228;51.022;6.764;2024-03-17T00:28:21;5.60;99.90
2435;DHT22;1228;51.022;6.764;2024-03-17T00:30:47;5.50;99.90
2435;DHT22;1228;51.022;6.764;2024-03-17T00:33:13;5.60;99.90
2435;DHT22;1228;51.022;6.764;2024-03-17T00:35:39;5.60;99.90
2435;DHT22;1228;51.022;6.764;2024-03-17T00:38:05;5.60;99.90
2435;DHT22;1228;51.022;6.764;2024-03-17T00:40:36;5.60;99.90
2435;DHT22;1228;51.022;6.764;2024-03-17T00:43:02;5.50;99.90
2435;DHT22;1228;51.022;6.764;2024-03-17T00:45:28;5.60;99.90
2435;DHT22;1228;51.022;6.764;2024-03-17T00:47:53;5.60;99.90
2435;DHT22;1228;51.022;6.764;2024-03-17T00:50:19;5.60;99.90
2435;DHT22;1228;51.022;6.764;2024-03-17T00:52:44;5.60;99.90
2435;DHT22;1228;51.022;6.764;2024-03-17T00:55:10;5.60;99.90
2435;DHT22;1228;51.022;6.764;2024-03-17T00:57:36;5.60;99.90
2435;DHT22;1228;51.022;6.764;2024-03-17T01:00:06;5.60;99.90
2435;DHT22;1228;51.022;6.764;2024-03-17T01:02:31;5.60;99.90
2435;DHT22;1228;51.022;6.764;2024-03-17T01:04:57;5.60;99.90
2435;DHT22;1228;51.022;6.764;2024-03-17T01:07:23;5.60;99.90
2435;DHT22;1228;51.022;6.764;2024-03-17T01:09:48;5.60;99.90
2435;DHT22;1228;51.022;6.764;2024-03-17T01:12:14;5.60;99.90
2435;DHT22;1228;51.022;6.764;2024-03-17T01:14:40;5.60;99.90
2435;DHT22;1228;51.022;6.764;2024-03-17T01:17:05;5.60;99.90
2435;DHT22;1228;51.022;6.764;2024-03-17T01:19:31;5.60;99.90
2435;DHT22;1228;51.022;6.764;2024-03-17T01:21:59;5.60;99.90
2435;DHT22;1228;51.022;6.764;2024-03-17T01:24:25;5.60;99.90
2435;DHT22;1228;51.022;6.764;2024-03-17T01:26:51;5.60;99.90
2435;DHT22;1228;51.022;6.764;2024-03-17T01:29:16;5.60;99.90
2435;DHT22;1228;51.022;6.764;2024-03-17T01:31:42;5.60;99.90
2435;DHT22;1228;51.022;6.764;2024-03-17T01:34:07;5.50;99.90
2435;DHT22;1228;51.022;6.764;2024-03-17T01:36:33;5.50;99.90
2435;DHT22;1228;51.022;6.764;2024-03-17T01:38:59;5.40;99.90
2435;DHT22;1228;51.022;6.764;2024-03-17T01:41:25;5.30;99.90
2435;DHT22;1228;51.022;6.764;2024-03-17T01:43:51;5.30;99.90
2435;DHT22;1228;51.022;6.764;2024-03-17T01:46:17;5.30;99.90
2435;DHT22;1228;51.022;6.764;2024-03-17T01:48:43;5.20;99.90
2435;DHT22;1228;51.022;6.764;2024-03-17T01:51:11;5.10;99.90
2435;DHT22;1228;51.022;6.764;2024-03-17T01:53:39;5.10;99.90
2435;DHT22;1228;51.022;6.764;2024-03-17T01:56:05;5.10;99.90
2435;DHT22;1228;51.022;6.764;2024-03-17T01:58:34;5.00;99.90
2435;DHT22;1228;51.022;6.764;2024-03-17T02:00:59;5.00;99.90
2435;DHT22;1228;51.022;6.764;2024-03-17T02:03:25;5.00;99.90
2435;DHT22;1228;51.022;6.764;2024-03-17T02:05:51;5.00;99.90
2435;DHT22;1228;51.022;6.764;2024-03-17T02:08:16;4.90;99.90
2435;DHT22;1228;51.022;6.764;2024-03-17T02:10:43;4.90;99.90
2435;DHT22;1228;51.022;6.764;2024-03-17T02:13:09;4.90;99.90
2435;DHT22;1228;51.022;6.764;2024-03-17T02:15:34;4.90;99.90
2435;DHT22;1228;51.022;6.764;2024-03-17T02:18:00;4.90;99.90
2435;DHT22;1228;51.022;6.764;2024-03-17T02:20:26;4.90;99.90
2435;DHT22;1228;51.022;6.764;2024-03-17T02:23:10;4.90;99.90
2435;DHT22;1228;51.022;6.764;2024-03-17T02:25:35;4.80;99.90
2435;DHT22;1228;51.022;6.764;2024-03-17T02:28:01;4.80;99.90
2435;DHT22;1228;51.022;6.764;2024-03-17T02:30:27;4.80;99.90
2435;DHT22;1228;51.022;6.764;2024-03-17T02:32:53;4.80;99.90
2435;DHT22;1228;51.022;6.764;2024-03-17T02:35:21;4.70;99.90
2435;DHT22;1228;51.022;6.764;2024-03-17T02:37:47;4.70;99.90
2435;DHT22;1228;51.022;6.764;2024-03-17T02:40:12;4.70;99.90
2435;DHT22;1228;51.022;6.764;2024-03-17T02:42:39;4.70;99.90
2435;DHT22;1228;51.022;6.764;2024-03-17T02:45:10;4.70;99.90
2435;DHT22;1228;51.022;6.764;2024-03-17T02:47:37;4.70;99.90
2435;DHT22;1228;51.022;6.764;2024-03-17T02:50:03;4.80;99.90
2435;DHT22;1228;51.022;6.764;2024-03-17T02:52:29;4.80;99.90
2435;DHT22;1228;51.022;6.764;2024-03-17T02:54:55;4.80;99.90
2435;DHT22;1228;51.022;6.764;2024-03-17T02:57:21;4.80;99.90
2435;DHT22;1228;51.022;6.764;2024-03-17T02:59:50;4.90;99.90
2435;DHT22;1228;51.022;6.764;2024-03-17T03:02:15;4.90;99.90
2435;DHT22;1228;51.022;6.764;2024-03-17T03:04:41;4.90;99.90
2435;DHT22;1228;51.022;6.764;2024-03-17T03:07:07;4.80;99.90
2435;DHT22;1228;51.022;6.764;2024-03-17T03:09:32;4.80;99.90
2435;DHT22;1228;51.022;6.764;2024-03-17T03:11:58;4.80;99.90
2435;DHT22;1228;51.022;6.764;2024-03-17T03:14:28;4.80;99.90
2435;DHT22;1228;51.022;6.764;2024-03-17T03:16:54;4.70;99.90
2435;DHT22;1228;51.022;6.764;2024-03-17T03:19:20;4.70;99.90
2435;DHT22;1228;51.022;6.764;2024-03-17T03:21:46;4.70;99.90
2435;DHT22;1228;51.022;6.764;2024-03-17T03:24:13;4.70;99.90
2435;DHT22;1228;51.022;6.764;2024-03-17T03:26:39;4.70;99.90
2435;DHT22;1228;51.022;6.764;2024-03-17T03:29:04;4.70;99.90
2435;DHT22;1228;51.022;6.764;2024-03-17T03:31:33;4.60;99.90
2435;DHT22;1228;51.022;6.764;2024-03-17T03:34:00;4.60;99.90
2435;DHT22;1228;51.022;6.764;2024-03-17T03:36:27;4.60;99.90
2435;DHT22;1228;51.022;6.764;2024-03-17T03:38:53;4.60;99.90
2435;DHT22;1228;51.022;6.764;2024-03-17T03:41:19;4.60;99.90
2435;DHT22;1228;51.022;6.764;2024-03-17T03:43:44;4.50;99.90
2435;DHT22;1228;51.022;6.764;2024-03-17T03:46:12;4.60;99.90
2435;DHT22;1228;51.022;6.764;2024-03-17T03:48:38;4.60;99.90
2435;DHT22;1228;51.022;6.764;2024-03-17T03:51:04;4.60;99.90
2435;DHT22;1228;51.022;6.764;2024-03-17T03:53:31;4.70;99.90
2435;DHT22;1228;51.022;6.764;2024-03-17T03:55:57;4.80;99.90
2435;DHT22;1228;51.022;6.764;2024-03-17T03:58:24;4.80;99.90
2435;DHT22;1228;51.022;6.764;2024-03-17T04:00:49;4.90;99.90
2435;DHT22;1228;51.022;6.764;2024-03-17T04:03:15;4.90;99.90
2435;DHT22;1228;51.022;6.764;2024-03-17T04:05:41;5.00;99.90
2435;DHT22;1228;51.022;6.764;2024-03-17T04:08:07;5.00;99.90
2435;DHT22;1228;51.022;6.764;2024-03-17T04:10:34;5.00;99.90
2435;DHT22;1228;51.022;6.764;2024-03-17T04:13:00;5.10;99.90
2435;DHT22;1228;51.022;6.764;2024-03-17T04:15:26;5.10;99.90
2435;DHT22;1228;51.022;6.764;2024-03-17T04:17:51;5.10;99.90
2435;DHT22;1228;51.022;6.764;2024-03-17T04:20:18;5.10;99.90
2435;DHT22;1228;51.022;6.764;2024-03-17T04:22:43;5.10;99.90
2435;DHT22;1228;51.022;6.764;2024-03-17T04:25:10;5.10;99.90
2435;DHT22;1228;51.022;6.764;2024-03-17T04:27:35;5.20;99.90
2435;DHT22;1228;51.022;6.764;2024-03-17T04:30:02;5.20;99.90
2435;DHT22;1228;51.022;6.764;2024-03-17T04:32:31;5.20;99.90
2435;DHT22;1228;51.022;6.764;2024-03-17T04:34:57;5.20;99.90
2435;DHT22;1228;51.022;6.764;2024-03-17T04:37:22;5.30;99.90
2435;DHT22;1228;51.022;6.764;2024-03-17T04:39:48;5.30;99.90
2435;DHT22;1228;51.022;6.764;2024-03-17T04:42:15;5.30;99.90
2435;DHT22;1228;51.022;6.764;2024-03-17T04:44:42;5.30;99.90
2435;DHT22;1228;51.022;6.764;2024-03-17T04:47:08;5.40;99.90
2435;DHT22;1228;51.022;6.764;2024-03-17T04:49:37;5.40;99.90
2435;DHT22;1228;51.022;6.764;2024-03-17T04:52:03;5.40;99.90
2435;DHT22;1228;51.022;6.764;2024-03-17T04:54:31;5.40;99.90
2435;DHT22;1228;51.022;6.764;2024-03-17T04:56:56;5.40;99.90
2435;DHT22;1228;51.022;6.764;2024-03-17T04:59:22;5.40;99.90
2435;DHT22;1228;51.022;6.764;2024-03-17T05:01:48;5.40;99.90
2435;DHT22;1228;51.022;6.764;2024-03-17T05:04:14;5.30;99.90
2435;DHT22;1228;51.022;6.764;2024-03-17T05:06:40;5.30;99.90
2435;DHT22;1228;51.022;6.764;2024-03-17T05:09:07;5.30;99.90
2435;DHT22;1228;51.022;6.764;2024-03-17T05:11:33;5.20;99.90
2435;DHT22;1228;51.022;6.764;2024-03-17T05:14:00;5.10;99.90
2435;DHT22;1228;51.022;6.764;2024-03-17T05:16:26;5.10;99.90
2435;DHT22;1228;51.022;6.764;2024-03-17T05:18:55;5.00;99.90
2435;DHT22;1228;51.022;6.764;2024-03-17T05:21:20;5.00;99.90
2435;DHT22;1228;51.022;6.764;2024-03-17T05:23:47;5.00;99.90
2435;DHT22;1228;51.022;6.764;2024-03-17T05:26:13;4.90;99.90
2435;DHT22;1228;51.022;6.764;2024-03-17T05:28:39;4.90;99.90
2435;DHT22;1228;51.022;6.764;2024-03-17T05:31:05;4.90;99.90
2435;DHT22;1228;51.022;6.764;2024-03-17T05:33:30;4.90;99.90
2435;DHT22;1228;51.022;6.764;2024-03-17T05:35:58;4.80;99.90
2435;DHT22;1228;51.022;6.764;2024-03-17T05:38:25;4.80;99.90
2435;DHT22;1228;51.022;6.764;2024-03-17T05:40:54;4.80;99.90
2435;DHT22;1228;51.022;6.764;2024-03-17T05:43:21;4.80;99.90
2435;DHT22;1228;51.022;6.764;2024-03-17T05:45:47;4.80;99.90
2435;DHT22;1228;51.022;6.764;2024-03-17T05:48:13;4.80;99.90
2435;DHT22;1228;51.022;6.764;2024-03-17T05:50:38;4.80;99.90
2435;DHT22;1228;51.022;6.764;2024-03-17T05:53:06;4.70;99.90
2435;DHT22;1228;51.022;6.764;2024-03-17T05:55:35;4.80;99.90
2435;DHT22;1228;51.022;6.764;2024-03-17T05:58:01;4.70;99.90
2435;DHT22;1228;51.022;6.764;2024-03-17T06:00:27;4.70;99.90
2435;DHT22;1228;51.022;6.764;2024-03-17T06:02:52;4.70;99.90
2435;DHT22;1228;51.022;6.764;2024-03-17T06:05:19;4.70;99.90
2435;DHT22;1228;51.022;6.764;2024-03-17T06:07:44;4.70;99.90
2435;DHT22;1228;51.022;6.764;2024-03-17T06:10:12;4.70;99.90
2435;DHT22;1228;51.022;6.764;2024-03-17T06:12:38;4.80;99.90
2435;DHT22;1228;51.022;6.764;2024-03-17T06:15:04;4.80;99.90
2435;DHT22;1228;51.022;6.764;2024-03-17T06:17:31;4.80;99.90
2435;DHT22;1228;51.022;6.764;2024-03-17T06:19:57;4.80;99.90
2435;DHT22;1228;51.022;6.764;2024-03-17T06:22:24;4.80;99.90
2435;DHT22;1228;51.022;6.764;2024-03-17T06:24:50;4.80;99.90
2435;DHT22;1228;51.022;6.764;2024-03-17T06:27:17;4.90;99.90
2435;DHT22;1228;51.022;6.764;2024-03-17T06:29:47;4.90;99.90
2435;DHT22;1228;51.022;6.764;2024-03-17T06:32:14;5.00;99.90
2435;DHT22;1228;51.022;6.764;2024-03-17T06:34:42;5.00;99.90
2435;DHT22;1228;51.022;6.764;2024-03-17T06:37:09;5.10;99.90
2435;DHT22;1228;51.022;6.764;2024-03-17T06:39:34;5.20;99.90
2435;DHT22;1228;51.022;6.764;2024-03-17T06:42:00;5.30;99.90
2435;DHT22;1228;51.022;6.764;2024-03-17T06:44:27;5.30;99.90
2435;DHT22;1228;51.022;6.764;2024-03-17T06:46:55;5.40;99.90
2435;DHT22;1228;51.022;6.764;2024-03-17T06:49:21;5.50;99.90
2435;DHT22;1228;51.022;6.764;2024-03-17T06:51:47;5.50;99.90
2435;DHT22;1228;51.022;6.764;2024-03-17T06:54:13;5.60;99.90
2435;DHT22;1228;51.022;6.764;2024-03-17T06:56:39;5.70;99.90
2435;DHT22;1228;51.022;6.764;2024-03-17T06:59:05;5.80;99.90
2435;DHT22;1228;51.022;6.764;2024-03-17T07:01:31;6.00;99.90
2435;DHT22;1228;51.022;6.764;2024-03-17T07:03:56;6.20;99.90
2435;DHT22;1228;51.022;6.764;2024-03-17T07:06:24;6.30;99.90
2435;DHT22;1228;51.022;6.764;2024-03-17T07:08:51;6.50;99.90
2435;DHT22;1228;51.022;6.764;2024-03-17T07:11:17;6.80;99.90
2435;DHT22;1228;51.022;6.764;2024-03-17T07:13:43;7.00;99.90
2435;DHT22;1228;51.022;6.764;2024-03-17T07:16:09;7.20;99.90
2435;DHT22;1228;51.022;6.764;2024-03-17T07:18:35;7.50;99.90
2435;DHT22;1228;51.022;6.764;2024-03-17T07:21:03;7.90;99.90
2435;DHT22;1228;51.022;6.764;2024-03-17T07:23:32;8.50;99.90
2435;DHT22;1228;51.022;6.764;2024-03-17T07:25:59;9.00;99.90
2435;DHT22;1228;51.022;6.764;2024-03-17T07:28:26;9.40;99.90
2435;DHT22;1228;51.022;6.764;2024-03-17T07:30:53;9.80;99.90
2435;DHT22;1228;51.022;6.764;2024-03-17T07:33:20;10.30;99.90
2435;DHT22;1228;51.022;6.764;2024-03-17T07:35:57;10.80;99.90
2435;DHT22;1228;51.022;6.764;2024-03-17T07:38:25;11.30;99.90
2435;DHT22;1228;51.022;6.764;2024-03-17T07:41:04;11.50;99.90
2435;DHT22;1228;51.022;6.764;2024-03-17T07:43:36;11.90;99.90
2435;DHT22;1228;51.022;6.764;2024-03-17T07:46:10;12.00;99.90
2435;DHT22;1228;51.022;6.764;2024-03-17T07:48:40;12.10;99.90
2435;DHT22;1228;51.022;6.764;2024-03-17T07:51:08;12.10;99.90
2435;DHT22;1228;51.022;6.764;2024-03-17T07:53:37;12.10;99.90
2435;DHT22;1228;51.022;6.764;2024-03-17T07:56:11;12.10;99.90
2435;DHT22;1228;51.022;6.764;2024-03-17T07:58:47;12.20;99.90
2435;DHT22;1228;51.022;6.764;2024-03-17T08:01:16;12.40;99.90
2435;DHT22;1228;51.022;6.764;2024-03-17T08:03:47;12.80;99.90
2435;DHT22;1228;51.022;6.764;2024-03-17T08:06:21;13.20;99.90
2435;DHT22;1228;51.022;6.764;2024-03-17T08:08:49;13.40;99.90
2435;DHT22;1228;51.022;6.764;2024-03-17T08:11:16;13.70;99.90
2435;DHT22;1228;51.022;6.764;2024-03-17T08:13:42;13.70;99.90
2435;DHT22;1228;51.022;6.764;2024-03-17T08:16:08;13.60;99.90
2435;DHT22;1228;51.022;6.764;2024-03-17T08:18:34;13.60;99.90
2435;DHT22;1228;51.022;6.764;2024-03-17T08:21:00;13.60;99.90
2435;DHT22;1228;51.022;6.764;2024-03-17T08:23:27;13.50;99.90
2435;DHT22;1228;51.022;6.764;2024-03-17T08:25:53;13.30;99.90
2435;DHT22;1228;51.022;6.764;2024-03-17T08:28:20;12.90;99.90
2435;DHT22;1228;51.022;6.764;2024-03-17T08:31:02;12.60;99.90
2435;DHT22;1228;51.022;6.764;2024-03-17T08:33:31;12.70;99.90
2435;DHT22;1228;51.022;6.764;2024-03-17T08:36:08;13.10;99.90
2435;DHT22;1228;51.022;6.764;2024-03-17T08:38:37;13.70;99.90
2435;DHT22;1228;51.022;6.764;2024-03-17T08:41:07;14.10;99.90
2435;DHT22;1228;51.022;6.764;2024-03-17T08:43:33;14.10;99.90
2435;DHT22;1228;51.022;6.764;2024-03-17T08:46:04;13.90;99.90
2435;DHT22;1228;51.022;6.764;2024-03-17T08:48:32;13.70;99.90
2435;DHT22;1228;51.022;6.764;2024-03-17T08:51:00;13.50;99.90
2435;DHT22;1228;51.022;6.764;2024-03-17T08:53:27;13.30;99.90
2435;DHT22;1228;51.022;6.764;2024-03-17T08:55:54;13.10;99.90
2435;DHT22;1228;51.022;6.764;2024-03-17T08:58:20;13.00;99.90
2435;DHT22;1228;51.022;6.764;2024-03-17T09:00:46;13.10;99.90
2435;DHT22;1228;51.022;6.764;2024-03-17T09:03:12;13.20;99.90
2435;DHT22;1228;51.022;6.764;2024-03-17T09:05:39;13.50;99.90
2435;DHT22;1228;51.022;6.764;2024-03-17T09:08:06;13.80;99.90
2435;DHT22;1228;51.022;6.764;2024-03-17T09:10:42;13.90;99.90
2435;DHT22;1228;51.022;6.764;2024-03-17T09:13:17;14.00;99.90
2435;DHT22;1228;51.022;6.764;2024-03-17T09:15:51;13.90;99.90
2435;DHT22;1228;51.022;6.764;2024-03-17T09:18:18;13.80;99.90
2435;DHT22;1228;51.022;6.764;2024-03-17T09:20:45;13.60;99.90
2435;DHT22;1228;51.022;6.764;2024-03-17T09:23:11;13.60;99.90
2435;DHT22;1228;51.022;6.764;2024-03-17T09:25:37;13.60;99.90
2435;DHT22;1228;51.022;6.764;2024-03-17T09:28:02;13.50;99.90
2435;DHT22;1228;51.022;6.764;2024-03-17T09:30:28;13.50;99.90
2435;DHT22;1228;51.022;6.764;2024-03-17T09:32:54;13.50;99.90
2435;DHT22;1228;51.022;6.764;2024-03-17T09:35:19;13.60;99.90
2435;DHT22;1228;51.022;6.764;2024-03-17T09:37:45;13.70;99.90
2435;DHT22;1228;51.022;6.764;2024-03-17T09:40:14;13.90;99.90
2435;DHT22;1228;51.022;6.764;2024-03-17T09:42:41;14.30;99.90
2435;DHT22;1228;51.022;6.764;2024-03-17T09:45:11;14.50;99.90
2435;DHT22;1228;51.022;6.764;2024-03-17T09:47:38;14.80;99.90
2435;DHT22;1228;51.022;6.764;2024-03-17T09:50:08;14.70;99.90
2435;DHT22;1228;51.022;6.764;2024-03-17T09:52:39;14.70;99.90
2435;DHT22;1228;51.022;6.764;2024-03-17T09:55:08;14.70;99.90
2435;DHT22;1228;51.022;6.764;2024-03-17T09:57:36;14.60;99.90
2435;DHT22;1228;51.022;6.764;2024-03-17T10:00:10;14.60;99.90
2435;DHT22;1228;51.022;6.764;2024-03-17T10:02:46;14.60;99.90
2435;DHT22;1228;51.022;6.764;2024-03-17T10:07:46;14.70;99.90
2435;DHT22;1228;51.022;6.764;2024-03-17T10:10:12;14.80;99.90
2435;DHT22;1228;51.022;6.764;2024-03-17T10:12:41;14.80;99.90
2435;DHT22;1228;51.022;6.764;2024-03-17T10:15:11;14.70;99.90
2435;DHT22;1228;51.022;6.764;2024-03-17T10:17:38;14.70;99.90
2435;DHT22;1228;51.022;6.764;2024-03-17T10:20:19;14.50;99.90
2435;DHT22;1228;51.022;6.764;2024-03-17T10:23:06;14.60;99.90
2435;DHT22;1228;51.022;6.764;2024-03-17T10:25:38;14.70;99.90
2435;DHT22;1228;51.022;6.764;2024-03-17T10:28:13;14.80;99.90
2435;DHT22;1228;51.022;6.764;2024-03-17T10:30:40;15.00;99.90
2435;DHT22;1228;51.022;6.764;2024-03-17T10:33:06;15.10;99.90
2435;DHT22;1228;51.022;6.764;2024-03-17T10:35:38;15.20;99.90
2435;DHT22;1228;51.022;6.764;2024-03-17T10:38:12;15.50;99.90
2435;DHT22;1228;51.022;6.764;2024-03-17T10:40:39;15.70;99.90
2435;DHT22;1228;51.022;6.764;2024-03-17T10:43:06;16.00;99.90
2435;DHT22;1228;51.022;6.764;2024-03-17T10:45:33;16.30;99.90
2435;DHT22;1228;51.022;6.764;2024-03-17T10:48:08;16.60;99.90
2435;DHT22;1228;51.022;6.764;2024-03-17T10:50:36;16.80;99.90
2435;DHT22;1228;51.022;6.764;2024-03-17T10:53:04;17.20;99.90
2435;DHT22;1228;51.022;6.764;2024-03-17T10:55:45;17.50;99.90
2435;DHT22;1228;51.022;6.764;2024-03-17T10:58:34;17.90;99.90
2435;DHT22;1228;51.022;6.764;2024-03-17T11:01:03;18.40;99.90
2435;DHT22;1228;51.022;6.764;2024-03-17T11:03:33;18.60;99.90
2435;DHT22;1228;51.022;6.764;2024-03-17T11:06:03;18.70;99.90
2435;DHT22;1228;51.022;6.764;2024-03-17T11:08:32;18.80;99.90
2435;DHT22;1228;51.022;6.764;2024-03-17T11:10:58;18.80;99.90
2435;DHT22;1228;51.022;6.764;2024-03-17T11:13:26;18.80;98.80
2435;DHT22;1228;51.022;6.764;2024-03-17T11:15:53;18.50;99.00
2435;DHT22;1228;51.022;6.764;2024-03-17T11:21:07;18.40;99.90
2435;DHT22;1228;51.022;6.764;2024-03-17T11:23:35;18.60;99.90
2435;DHT22;1228;51.022;6.764;2024-03-17T11:26:03;18.90;99.90
2435;DHT22;1228;51.022;6.764;2024-03-17T11:31:32;19.10;97.70
2435;DHT22;1228;51.022;6.764;2024-03-17T11:33:58;19.10;98.40
2435;DHT22;1228;51.022;6.764;2024-03-17T11:39:04;18.20;96.40
2435;DHT22;1228;51.022;6.764;2024-03-17T11:41:46;17.80;98.50
2435;DHT22;1228;51.022;6.764;2024-03-17T11:47:05;17.40;99.90
2435;DHT22;1228;51.022;6.764;2024-03-17T11:49:39;17.30;99.90
2435;DHT22;1228;51.022;6.764;2024-03-17T11:54:37;17.70;99.90
2435;DHT22;1228;51.022;6.764;2024-03-17T11:57:06;17.70;99.90
2435;DHT22;1228;51.022;6.764;2024-03-17T11:59:32;17.80;99.90
2435;DHT22;1228;51.022;6.764;2024-03-17T12:01:58;18.00;99.90
2435;DHT22;1228;51.022;6.764;2024-03-17T12:04:25;18.10;99.60
2435;DHT22;1228;51.022;6.764;2024-03-17T12:06:52;18.10;99.50
2435;DHT22;1228;51.022;6.764;2024-03-17T12:14:19;18.50;98.20
2435;DHT22;1228;51.022;6.764;2024-03-17T12:16:55;18.60;98.20
2435;DHT22;1228;51.022;6.764;2024-03-17T12:19:22;18.60;97.50
2435;DHT22;1228;51.022;6.764;2024-03-17T12:21:53;18.50;96.90
2435;DHT22;1228;51.022;6.764;2024-03-17T12:24:23;18.20;95.90
2435;DHT22;1228;51.022;6.764;2024-03-17T12:26:51;18.10;98.30
2435;DHT22;1228;51.022;6.764;2024-03-17T12:31:57;18.20;98.40
2435;DHT22;1228;51.022;6.764;2024-03-17T12:34:25;18.20;98.70
2435;DHT22;1228;51.022;6.764;2024-03-17T12:36:52;18.10;98.60
2435;DHT22;1228;51.022;6.764;2024-03-17T12:39:36;18.00;96.80
2435;DHT22;1228;51.022;6.764;2024-03-17T12:42:09;17.80;98.30
2435;DHT22;1228;51.022;6.764;2024-03-17T12:44:54;17.70;99.10
2435;DHT22;1228;51.022;6.764;2024-03-17T12:47:21;17.70;99.90
2435;DHT22;1228;51.022;6.764;2024-03-17T12:49:49;17.50;99.90
2435;DHT22;1228;51.022;6.764;2024-03-17T12:52:18;17.30;98.40
2435;DHT22;1228;51.022;6.764;2024-03-17T12:54:45;17.30;99.90
2435;DHT22;1228;51.022;6.764;2024-03-17T12:57:41;17.30;99.90
2435;DHT22;1228;51.022;6.764;2024-03-17T13:00:25;17.40;99.90
2435;DHT22;1228;51.022;6.764;2024-03-17T13:02:57;17.50;99.90
2435;DHT22;1228;51.022;6.764;2024-03-17T13:05:23;17.30;99.90
2435;DHT22;1228;51.022;6.764;2024-03-17T13:07:50;17.10;99.90
2435;DHT22;1228;51.022;6.764;2024-03-17T13:10:17;16.90;99.90
2435;DHT22;1228;51.022;6.764;2024-03-17T13:12:44;16.80;99.90
2435;DHT22;1228;51.022;6.764;2024-03-17T13:15:12;16.50;99.90
2435;DHT22;1228;51.022;6.764;2024-03-17T13:17:38;16.40;99.90
2435;DHT22;1228;51.022;6.764;2024-03-17T13:20:06;16.40;99.90
2435;DHT22;1228;51.022;6.764;2024-03-17T13:22:34;16.40;99.90
2435;DHT22;1228;51.022;6.764;2024-03-17T13:25:01;16.50;99.90
2435;DHT22;1228;51.022;6.764;2024-03-17T13:27:26;16.50;99.90
2435;DHT22;1228;51.022;6.764;2024-03-17T13:29:52;16.50;99.90
2435;DHT22;1228;51.022;6.764;2024-03-17T13:32:19;16.50;99.90
2435;DHT22;1228;51.022;6.764;2024-03-17T13:34:45;16.40;99.90
2435;DHT22;1228;51.022;6.764;2024-03-17T13:37:11;16.40;99.90
2435;DHT22;1228;51.022;6.764;2024-03-17T13:39:36;16.20;99.90
2435;DHT22;1228;51.022;6.764;2024-03-17T13:42:02;16.10;99.90
2435;DHT22;1228;51.022;6.764;2024-03-17T13:44:31;16.00;99.90
2435;DHT22;1228;51.022;6.764;2024-03-17T13:46:58;16.00;99.90
2435;DHT22;1228;51.022;6.764;2024-03-17T13:49:24;16.10;99.90
2435;DHT22;1228;51.022;6.764;2024-03-17T13:51:52;16.20;99.90
2435;DHT22;1228;51.022;6.764;2024-03-17T13:54:18;16.30;99.90
2435;DHT22;1228;51.022;6.764;2024-03-17T13:56:49;16.20;99.90
2435;DHT22;1228;51.022;6.764;2024-03-17T13:59:15;16.20;99.90
2435;DHT22;1228;51.022;6.764;2024-03-17T14:01:44;16.30;99.90
2435;DHT22;1228;51.022;6.764;2024-03-17T14:04:16;16.40;99.90
2435;DHT22;1228;51.022;6.764;2024-03-17T14:06:44;16.50;99.90
2435;DHT22;1228;51.022;6.764;2024-03-17T14:09:11;16.70;99.90
2435;DHT22;1228;51.022;6.764;2024-03-17T14:11:37;16.80;99.90
2435;DHT22;1228;51.022;6.764;2024-03-17T14:14:06;16.80;99.90
2435;DHT22;1228;51.022;6.764;2024-03-17T14:16:33;16.70;99.90
2435;DHT22;1228;51.022;6.764;2024-03-17T14:19:00;16.80;99.90
2435;DHT22;1228;51.022;6.764;2024-03-17T14:21:26;17.00;99.90
2435;DHT22;1228;51.022;6.764;2024-03-17T14:23:52;17.10;99.90
2435;DHT22;1228;51.022;6.764;2024-03-17T14:26:18;17.20;99.90
2435;DHT22;1228;51.022;6.764;2024-03-17T14:28:43;17.30;99.90
2435;DHT22;1228;51.022;6.764;2024-03-17T14:31:09;17.30;99.90
2435;DHT22;1228;51.022;6.764;2024-03-17T14:33:35;17.40;99.90
2435;DHT22;1228;51.022;6.764;2024-03-17T14:36:01;17.50;99.90
2435;DHT22;1228;51.022;6.764;2024-03-17T14:38:26;17.40;99.90
2435;DHT22;1228;51.022;6.764;2024-03-17T14:40:52;17.40;99.90
2435;DHT22;1228;51.022;6.764;2024-03-17T14:43:19;17.40;99.90
2435;DHT22;1228;51.022;6.764;2024-03-17T14:45:45;17.50;99.90
2435;DHT22;1228;51.022;6.764;2024-03-17T14:48:11;17.60;99.90
2435;DHT22;1228;51.022;6.764;2024-03-17T14:50:38;17.70;99.90
2435;DHT22;1228;51.022;6.764;2024-03-17T14:53:04;17.70;99.90
2435;DHT22;1228;51.022;6.764;2024-03-17T14:55:30;17.60;99.90
2435;DHT22;1228;51.022;6.764;2024-03-17T14:57:58;17.60;99.90
2435;DHT22;1228;51.022;6.764;2024-03-17T15:00:24;17.60;99.90
2435;DHT22;1228;51.022;6.764;2024-03-17T15:02:52;17.40;99.90
2435;DHT22;1228;51.022;6.764;2024-03-17T15:05:18;17.50;99.90
2435;DHT22;1228;51.022;6.764;2024-03-17T15:07:48;17.50;99.90
2435;DHT22;1228;51.022;6.764;2024-03-17T15:10:14;17.40;99.90
2435;DHT22;1228;51.022;6.764;2024-03-17T15:12:49;17.60;99.90
2435;DHT22;1228;51.022;6.764;2024-03-17T15:15:15;17.80;99.90
2435;DHT22;1228;51.022;6.764;2024-03-17T15:17:41;17.90;99.90
2435;DHT22;1228;51.022;6.764;2024-03-17T15:20:07;18.10;99.90
2435;DHT22;1228;51.022;6.764;2024-03-17T15:22:45;18.20;99.90
2435;DHT22;1228;51.022;6.764;2024-03-17T15:25:12;18.10;99.90
2435;DHT22;1228;51.022;6.764;2024-03-17T15:27:40;18.00;99.30
2435;DHT22;1228;51.022;6.764;2024-03-17T15:30:06;17.80;99.90
2435;DHT22;1228;51.022;6.764;2024-03-17T15:32:32;17.70;99.90
2435;DHT22;1228;51.022;6.764;2024-03-17T15:34:57;17.50;99.90
2435;DHT22;1228;51.022;6.764;2024-03-17T15:37:24;17.50;99.90
2435;DHT22;1228;51.022;6.764;2024-03-17T15:39:50;17.40;99.90
2435;DHT22;1228;51.022;6.764;2024-03-17T15:42:15;17.30;99.90
2435;DHT22;1228;51.022;6.764;2024-03-17T15:44:42;17.40;99.90
2435;DHT22;1228;51.022;6.764;2024-03-17T15:47:08;17.50;99.90
2435;DHT22;1228;51.022;6.764;2024-03-17T15:49:34;17.70;99.90
2435;DHT22;1228;51.022;6.764;2024-03-17T15:51:59;18.10;99.90
2435;DHT22;1228;51.022;6.764;2024-03-17T15:54:25;18.50;99.90
2435;DHT22;1228;51.022;6.764;2024-03-17T15:56:50;18.90;99.90
2435;DHT22;1228;51.022;6.764;2024-03-17T15:59:16;19.40;99.90
2435;DHT22;1228;51.022;6.764;2024-03-17T16:01:44;19.80;99.70
2435;DHT22;1228;51.022;6.764;2024-03-17T16:04:10;20.30;98.70
2435;DHT22;1228;51.022;6.764;2024-03-17T16:06:36;20.60;95.00
2435;DHT22;1228;51.022;6.764;2024-03-17T16:09:03;20.10;95.10
2435;DHT22;1228;51.022;6.764;2024-03-17T16:11:29;19.60;95.50
2435;DHT22;1228;51.022;6.764;2024-03-17T16:13:58;19.10;97.10
2435;DHT22;1228;51.022;6.764;2024-03-17T16:16:24;18.60;98.70
2435;DHT22;1228;51.022;6.764;2024-03-17T16:18:55;18.00;99.30
2435;DHT22;1228;51.022;6.764;2024-03-17T16:21:21;17.40;99.90
2435;DHT22;1228;51.022;6.764;2024-03-17T16:23:58;17.00;99.90
2435;DHT22;1228;51.022;6.764;2024-03-17T16:26:25;16.60;99.90
2435;DHT22;1228;51.022;6.764;2024-03-17T16:28:51;16.30;99.90
2435;DHT22;1228;51.022;6.764;2024-03-17T16:31:18;16.00;99.90
2435;DHT22;1228;51.022;6.764;2024-03-17T16:33:45;15.80;99.90
2435;DHT22;1228;51.022;6.764;2024-03-17T16:36:11;15.60;99.90